sensor_id;sensor_type;location;lat;lon;timestamp;P1;durP1;ratioP1;P2;durP2;ratioP2
53034;SDS011;38923;53.236;6.506;2022-10-26T00:00:07;16.95;;;8.30;;
53034;SDS011;38923;53.236;6.506;2022-10-26T00:02:33;15.73;;;8.82;;
53034;SDS011;38923;53.236;6.506;2022-10-26T00:04:59;13.40;;;8.13;;
53034;SDS011;38923;53.236;6.506;2022-10-26T00:07:27;16.45;;;8.30;;
53034;SDS011;38923;53.236;6.506;2022-10-26T00:09:54;13.20;;;7.93;;
53034;SDS011;38923;53.236;6.506;2022-10-26T00:12:20;16.20;;;8.18;;
53034;SDS011;38923;53.236;6.506;2022-10-26T00:14:46;19.90;;;7.97;;
53034;SDS011;38923;53.236;6.506;2022-10-26T00:17:11;15.73;;;8.38;;
53034;SDS011;38923;53.236;6.506;2022-10-26T00:19:37;15.25;;;8.57;;
53034;SDS011;38923;53.236;6.506;2022-10-26T00:22:03;15.55;;;8.90;;
53034;SDS011;38923;53.236;6.506;2022-10-26T00:24:29;17.13;;;9.60;;
53034;SDS011;38923;53.236;6.506;2022-10-26T00:26:55;17.38;;;8.90;;
53034;SDS011;38923;53.236;6.506;2022-10-26T00:29:20;14.98;;;7.93;;
53034;SDS011;38923;53.236;6.506;2022-10-26T00:31:46;19.38;;;8.48;;
53034;SDS011;38923;53.236;6.506;2022-10-26T00:34:12;16.38;;;8.27;;
53034;SDS011;38923;53.236;6.506;2022-10-26T00:36:37;15.05;;;7.50;;
53034;SDS011;38923;53.236;6.506;2022-10-26T00:39:03;13.68;;;7.97;;
53034;SDS011;38923;53.236;6.506;2022-10-26T00:41:30;12.20;;;7.75;;
53034;SDS011;38923;53.236;6.506;2022-10-26T00:43:58;14.90;;;8.23;;
53034;SDS011;38923;53.236;6.506;2022-10-26T00:46:34;18.38;;;9.05;;
53034;SDS011;38923;53.236;6.506;2022-10-26T00:49:03;17.02;;;8.85;;
53034;SDS011;38923;53.236;6.506;2022-10-26T00:51:35;19.37;;;9.37;;
53034;SDS011;38923;53.236;6.506;2022-10-26T00:54:15;17.88;;;8.70;;
53034;SDS011;38923;53.236;6.506;2022-10-26T00:56:43;14.25;;;8.00;;
53034;SDS011;38923;53.236;6.506;2022-10-26T00:59:10;17.60;;;8.98;;
53034;SDS011;38923;53.236;6.506;2022-10-26T01:01:39;14.05;;;8.48;;
53034;SDS011;38923;53.236;6.506;2022-10-26T01:04:07;18.08;;;8.60;;
53034;SDS011;38923;53.236;6.506;2022-10-26T01:06:33;20.52;;;9.93;;
53034;SDS011;38923;53.236;6.506;2022-10-26T01:09:01;17.30;;;9.48;;
53034;SDS011;38923;53.236;6.506;2022-10-26T01:11:28;17.42;;;9.13;;
53034;SDS011;38923;53.236;6.506;2022-10-26T01:13:54;18.52;;;9.30;;
53034;SDS011;38923;53.236;6.506;2022-10-26T01:19:14;16.27;;;8.82;;
53034;SDS011;38923;53.236;6.506;2022-10-26T01:22:06;19.02;;;8.70;;
53034;SDS011;38923;53.236;6.506;2022-10-26T01:27:39;18.25;;;8.40;;
53034;SDS011;38923;53.236;6.506;2022-10-26T01:33:25;13.98;;;8.00;;
53034;SDS011;38923;53.236;6.506;2022-10-26T01:38:51;15.52;;;8.55;;
53034;SDS011;38923;53.236;6.506;2022-10-26T01:41:30;14.07;;;9.00;;
53034;SDS011;38923;53.236;6.506;2022-10-26T01:46:33;17.88;;;9.25;;
53034;SDS011;38923;53.236;6.506;2022-10-26T01:49:06;15.43;;;9.10;;
53034;SDS011;38923;53.236;6.506;2022-10-26T01:51:34;17.25;;;9.45;;
53034;SDS011;38923;53.236;6.506;2022-10-26T01:54:02;17.35;;;9.18;;
53034;SDS011;38923;53.236;6.506;2022-10-26T01:56:28;17.58;;;9.30;;
53034;SDS011;38923;53.236;6.506;2022-10-26T02:07:03;16.40;;;9.82;;
53034;SDS011;38923;53.236;6.506;2022-10-26T02:10:09;17.00;;;9.80;;
53034;SDS011;38923;53.236;6.506;2022-10-26T02:12:51;17.38;;;10.00;;
53034;SDS011;38923;53.236;6.506;2022-10-26T02:21:07;17.08;;;9.27;;
53034;SDS011;38923;53.236;6.506;2022-10-26T02:23:38;16.55;;;8.30;;
53034;SDS011;38923;53.236;6.506;2022-10-26T02:26:07;17.52;;;9.48;;
53034;SDS011;38923;53.236;6.506;2022-10-26T02:28:36;16.35;;;8.85;;
53034;SDS011;38923;53.236;6.506;2022-10-26T02:31:06;20.75;;;9.18;;
53034;SDS011;38923;53.236;6.506;2022-10-26T02:33:36;16.73;;;8.98;;
53034;SDS011;38923;53.236;6.506;2022-10-26T02:36:05;14.65;;;8.18;;
53034;SDS011;38923;53.236;6.506;2022-10-26T02:38:33;16.48;;;8.63;;
53034;SDS011;38923;53.236;6.506;2022-10-26T02:41:02;15.65;;;8.90;;
53034;SDS011;38923;53.236;6.506;2022-10-26T02:43:31;18.42;;;8.75;;
53034;SDS011;38923;53.236;6.506;2022-10-26T02:46:01;14.90;;;8.60;;
53034;SDS011;38923;53.236;6.506;2022-10-26T02:48:35;15.73;;;8.98;;
53034;SDS011;38923;53.236;6.506;2022-10-26T02:51:12;13.95;;;8.43;;
53034;SDS011;38923;53.236;6.506;2022-10-26T02:56:48;14.63;;;8.63;;
53034;SDS011;38923;53.236;6.506;2022-10-26T02:59:18;18.67;;;8.93;;
53034;SDS011;38923;53.236;6.506;2022-10-26T03:01:49;18.27;;;9.18;;
53034;SDS011;38923;53.236;6.506;2022-10-26T03:04:16;17.65;;;8.88;;
53034;SDS011;38923;53.236;6.506;2022-10-26T03:06:41;16.98;;;8.70;;
53034;SDS011;38923;53.236;6.506;2022-10-26T03:09:15;18.15;;;9.23;;
53034;SDS011;38923;53.236;6.506;2022-10-26T03:11:41;17.48;;;9.57;;
53034;SDS011;38923;53.236;6.506;2022-10-26T03:14:06;17.35;;;10.82;;
53034;SDS011;38923;53.236;6.506;2022-10-26T03:16:32;18.90;;;9.68;;
53034;SDS011;38923;53.236;6.506;2022-10-26T03:18:58;18.42;;;9.50;;
53034;SDS011;38923;53.236;6.506;2022-10-26T03:21:24;18.88;;;10.02;;
53034;SDS011;38923;53.236;6.506;2022-10-26T03:23:49;17.90;;;9.55;;
53034;SDS011;38923;53.236;6.506;2022-10-26T03:26:15;20.20;;;9.45;;
53034;SDS011;38923;53.236;6.506;2022-10-26T03:28:41;16.35;;;9.88;;
53034;SDS011;38923;53.236;6.506;2022-10-26T03:31:07;18.77;;;9.50;;
53034;SDS011;38923;53.236;6.506;2022-10-26T03:33:33;16.60;;;9.65;;
53034;SDS011;38923;53.236;6.506;2022-10-26T03:35:58;15.82;;;8.88;;
53034;SDS011;38923;53.236;6.506;2022-10-26T03:38:24;19.05;;;9.15;;
53034;SDS011;38923;53.236;6.506;2022-10-26T03:40:50;16.73;;;9.45;;
53034;SDS011;38923;53.236;6.506;2022-10-26T03:43:16;16.35;;;9.77;;
53034;SDS011;38923;53.236;6.506;2022-10-26T03:45:42;16.40;;;9.52;;
53034;SDS011;38923;53.236;6.506;2022-10-26T03:48:07;19.23;;;11.00;;
53034;SDS011;38923;53.236;6.506;2022-10-26T03:50:33;20.75;;;10.32;;
53034;SDS011;38923;53.236;6.506;2022-10-26T03:52:59;17.60;;;10.25;;
53034;SDS011;38923;53.236;6.506;2022-10-26T03:55:24;18.15;;;10.63;;
53034;SDS011;38923;53.236;6.506;2022-10-26T03:57:50;17.00;;;10.30;;
53034;SDS011;38923;53.236;6.506;2022-10-26T04:00:16;17.80;;;11.13;;
53034;SDS011;38923;53.236;6.506;2022-10-26T04:02:43;21.17;;;11.75;;
53034;SDS011;38923;53.236;6.506;2022-10-26T04:05:12;17.55;;;11.65;;
53034;SDS011;38923;53.236;6.506;2022-10-26T04:07:39;17.15;;;11.30;;
53034;SDS011;38923;53.236;6.506;2022-10-26T04:10:05;17.08;;;11.05;;
53034;SDS011;38923;53.236;6.506;2022-10-26T04:12:31;19.00;;;11.20;;
53034;SDS011;38923;53.236;6.506;2022-10-26T04:14:56;20.08;;;11.57;;
53034;SDS011;38923;53.236;6.506;2022-10-26T04:17:22;19.60;;;11.63;;
53034;SDS011;38923;53.236;6.506;2022-10-26T04:19:49;17.80;;;11.50;;
53034;SDS011;38923;53.236;6.506;2022-10-26T04:22:15;19.88;;;12.95;;
53034;SDS011;38923;53.236;6.506;2022-10-26T04:24:40;19.85;;;12.30;;
53034;SDS011;38923;53.236;6.506;2022-10-26T04:27:06;19.35;;;12.45;;
53034;SDS011;38923;53.236;6.506;2022-10-26T04:29:31;21.63;;;12.63;;
53034;SDS011;38923;53.236;6.506;2022-10-26T04:31:57;23.77;;;12.55;;
53034;SDS011;38923;53.236;6.506;2022-10-26T04:34:23;19.45;;;11.82;;
53034;SDS011;38923;53.236;6.506;2022-10-26T04:36:49;20.63;;;12.30;;
53034;SDS011;38923;53.236;6.506;2022-10-26T04:39:14;20.40;;;12.75;;
53034;SDS011;38923;53.236;6.506;2022-10-26T04:41:40;24.25;;;12.35;;
53034;SDS011;38923;53.236;6.506;2022-10-26T04:44:06;24.10;;;12.77;;
53034;SDS011;38923;53.236;6.506;2022-10-26T04:46:32;20.77;;;13.20;;
53034;SDS011;38923;53.236;6.506;2022-10-26T04:48:57;22.70;;;13.02;;
53034;SDS011;38923;53.236;6.506;2022-10-26T04:51:23;21.20;;;13.48;;
53034;SDS011;38923;53.236;6.506;2022-10-26T04:53:52;23.90;;;13.98;;
53034;SDS011;38923;53.236;6.506;2022-10-26T04:56:18;22.33;;;13.38;;
53034;SDS011;38923;53.236;6.506;2022-10-26T04:58:44;21.52;;;13.50;;
53034;SDS011;38923;53.236;6.506;2022-10-26T05:01:09;23.45;;;13.63;;
53034;SDS011;38923;53.236;6.506;2022-10-26T05:03:35;21.50;;;13.43;;
53034;SDS011;38923;53.236;6.506;2022-10-26T05:06:01;25.42;;;14.60;;
53034;SDS011;38923;53.236;6.506;2022-10-26T05:08:27;24.95;;;14.75;;
53034;SDS011;38923;53.236;6.506;2022-10-26T05:10:56;22.83;;;13.98;;
53034;SDS011;38923;53.236;6.506;2022-10-26T05:13:21;22.77;;;13.77;;
53034;SDS011;38923;53.236;6.506;2022-10-26T05:15:47;25.52;;;14.75;;
53034;SDS011;38923;53.236;6.506;2022-10-26T05:18:13;22.40;;;13.93;;
53034;SDS011;38923;53.236;6.506;2022-10-26T05:20:38;23.98;;;14.30;;
53034;SDS011;38923;53.236;6.506;2022-10-26T05:23:09;23.55;;;14.48;;
53034;SDS011;38923;53.236;6.506;2022-10-26T05:25:36;24.15;;;13.95;;
53034;SDS011;38923;53.236;6.506;2022-10-26T05:28:03;22.08;;;13.70;;
53034;SDS011;38923;53.236;6.506;2022-10-26T05:30:30;24.67;;;14.05;;
53034;SDS011;38923;53.236;6.506;2022-10-26T05:32:57;27.17;;;13.80;;
53034;SDS011;38923;53.236;6.506;2022-10-26T05:35:24;22.77;;;13.80;;
53034;SDS011;38923;53.236;6.506;2022-10-26T05:37:51;22.80;;;14.25;;
53034;SDS011;38923;53.236;6.506;2022-10-26T05:40:17;25.38;;;14.40;;
53034;SDS011;38923;53.236;6.506;2022-10-26T05:42:43;24.88;;;13.82;;
53034;SDS011;38923;53.236;6.506;2022-10-26T05:45:09;23.52;;;14.50;;
53034;SDS011;38923;53.236;6.506;2022-10-26T05:47:39;23.65;;;14.30;;
53034;SDS011;38923;53.236;6.506;2022-10-26T05:50:06;23.58;;;14.15;;
53034;SDS011;38923;53.236;6.506;2022-10-26T05:52:45;24.30;;;14.05;;
53034;SDS011;38923;53.236;6.506;2022-10-26T05:55:13;26.63;;;13.73;;
53034;SDS011;38923;53.236;6.506;2022-10-26T05:57:41;21.65;;;13.38;;
53034;SDS011;38923;53.236;6.506;2022-10-26T06:00:08;25.25;;;13.43;;
53034;SDS011;38923;53.236;6.506;2022-10-26T06:05:14;24.13;;;12.48;;
53034;SDS011;38923;53.236;6.506;2022-10-26T06:07:45;22.58;;;13.07;;
53034;SDS011;38923;53.236;6.506;2022-10-26T06:10:11;22.40;;;12.63;;
53034;SDS011;38923;53.236;6.506;2022-10-26T06:12:37;19.45;;;11.60;;
53034;SDS011;38923;53.236;6.506;2022-10-26T06:15:03;23.77;;;12.23;;
53034;SDS011;38923;53.236;6.506;2022-10-26T06:17:42;17.88;;;11.77;;
53034;SDS011;38923;53.236;6.506;2022-10-26T06:23:22;23.85;;;11.80;;
53034;SDS011;38923;53.236;6.506;2022-10-26T06:28:51;26.35;;;13.75;;
53034;SDS011;38923;53.236;6.506;2022-10-26T06:31:36;18.70;;;12.80;;
53034;SDS011;38923;53.236;6.506;2022-10-26T06:34:02;21.30;;;12.30;;
53034;SDS011;38923;53.236;6.506;2022-10-26T06:36:28;24.85;;;13.48;;
53034;SDS011;38923;53.236;6.506;2022-10-26T06:39:03;24.77;;;13.65;;
53034;SDS011;38923;53.236;6.506;2022-10-26T06:41:34;17.58;;;12.05;;
53034;SDS011;38923;53.236;6.506;2022-10-26T06:44:01;24.13;;;14.32;;
53034;SDS011;38923;53.236;6.506;2022-10-26T06:46:43;18.60;;;12.98;;
53034;SDS011;38923;53.236;6.506;2022-10-26T06:49:17;22.83;;;13.18;;
53034;SDS011;38923;53.236;6.506;2022-10-26T06:57:03;21.77;;;12.65;;
53034;SDS011;38923;53.236;6.506;2022-10-26T07:02:15;24.67;;;12.77;;
53034;SDS011;38923;53.236;6.506;2022-10-26T07:04:42;21.45;;;12.25;;
53034;SDS011;38923;53.236;6.506;2022-10-26T07:07:13;20.30;;;12.27;;
53034;SDS011;38923;53.236;6.506;2022-10-26T07:09:44;21.35;;;12.73;;
53034;SDS011;38923;53.236;6.506;2022-10-26T07:12:09;21.13;;;11.73;;
53034;SDS011;38923;53.236;6.506;2022-10-26T07:14:36;22.77;;;12.27;;
53034;SDS011;38923;53.236;6.506;2022-10-26T07:17:02;16.13;;;11.50;;
53034;SDS011;38923;53.236;6.506;2022-10-26T07:19:28;18.30;;;11.48;;
53034;SDS011;38923;53.236;6.506;2022-10-26T07:21:54;20.15;;;11.27;;
53034;SDS011;38923;53.236;6.506;2022-10-26T07:24:21;22.52;;;11.13;;
53034;SDS011;38923;53.236;6.506;2022-10-26T07:26:48;16.27;;;10.45;;
53034;SDS011;38923;53.236;6.506;2022-10-26T07:29:13;19.52;;;10.50;;
53034;SDS011;38923;53.236;6.506;2022-10-26T07:31:42;19.15;;;9.60;;
53034;SDS011;38923;53.236;6.506;2022-10-26T07:34:08;18.75;;;10.10;;
53034;SDS011;38923;53.236;6.506;2022-10-26T07:36:34;18.98;;;9.98;;
53034;SDS011;38923;53.236;6.506;2022-10-26T07:39:01;17.75;;;9.23;;
53034;SDS011;38923;53.236;6.506;2022-10-26T07:41:28;18.73;;;9.00;;
53034;SDS011;38923;53.236;6.506;2022-10-26T07:43:54;18.00;;;9.07;;
53034;SDS011;38923;53.236;6.506;2022-10-26T07:46:20;16.83;;;8.82;;
53034;SDS011;38923;53.236;6.506;2022-10-26T07:48:46;17.27;;;9.73;;
53034;SDS011;38923;53.236;6.506;2022-10-26T07:51:12;16.80;;;8.98;;
53034;SDS011;38923;53.236;6.506;2022-10-26T07:53:37;14.00;;;8.40;;
53034;SDS011;38923;53.236;6.506;2022-10-26T07:56:03;15.60;;;8.85;;
53034;SDS011;38923;53.236;6.506;2022-10-26T07:58:30;16.83;;;8.55;;
53034;SDS011;38923;53.236;6.506;2022-10-26T08:00:55;13.20;;;8.50;;
53034;SDS011;38923;53.236;6.506;2022-10-26T08:03:21;13.98;;;8.27;;
53034;SDS011;38923;53.236;6.506;2022-10-26T08:05:48;17.45;;;8.38;;
53034;SDS011;38923;53.236;6.506;2022-10-26T08:08:20;14.13;;;8.27;;
53034;SDS011;38923;53.236;6.506;2022-10-26T08:10:46;15.40;;;8.48;;
53034;SDS011;38923;53.236;6.506;2022-10-26T08:13:12;14.32;;;8.20;;
53034;SDS011;38923;53.236;6.506;2022-10-26T08:15:39;17.73;;;8.27;;
53034;SDS011;38923;53.236;6.506;2022-10-26T08:18:05;15.05;;;7.70;;
53034;SDS011;38923;53.236;6.506;2022-10-26T08:20:31;13.85;;;7.63;;
53034;SDS011;38923;53.236;6.506;2022-10-26T08:22:58;12.38;;;8.00;;
53034;SDS011;38923;53.236;6.506;2022-10-26T08:25:25;16.48;;;7.70;;
53034;SDS011;38923;53.236;6.506;2022-10-26T08:27:51;15.85;;;7.40;;
53034;SDS011;38923;53.236;6.506;2022-10-26T08:30:18;11.73;;;6.72;;
53034;SDS011;38923;53.236;6.506;2022-10-26T08:32:44;14.32;;;7.43;;
53034;SDS011;38923;53.236;6.506;2022-10-26T08:35:10;13.82;;;7.38;;
53034;SDS011;38923;53.236;6.506;2022-10-26T08:37:35;17.60;;;7.57;;
53034;SDS011;38923;53.236;6.506;2022-10-26T08:40:04;15.60;;;7.30;;
53034;SDS011;38923;53.236;6.506;2022-10-26T08:42:36;17.55;;;7.43;;
53034;SDS011;38923;53.236;6.506;2022-10-26T08:45:25;14.75;;;7.07;;
53034;SDS011;38923;53.236;6.506;2022-10-26T08:47:56;9.57;;;6.88;;
53034;SDS011;38923;53.236;6.506;2022-10-26T08:50:34;11.15;;;6.57;;
53034;SDS011;38923;53.236;6.506;2022-10-26T08:53:10;12.70;;;6.13;;
53034;SDS011;38923;53.236;6.506;2022-10-26T08:56:02;10.05;;;6.70;;
53034;SDS011;38923;53.236;6.506;2022-10-26T08:58:37;17.40;;;6.15;;
53034;SDS011;38923;53.236;6.506;2022-10-26T09:01:07;11.50;;;6.03;;
53034;SDS011;38923;53.236;6.506;2022-10-26T09:03:33;10.52;;;6.03;;
53034;SDS011;38923;53.236;6.506;2022-10-26T09:06:11;11.88;;;5.20;;
53034;SDS011;38923;53.236;6.506;2022-10-26T09:08:52;11.38;;;5.15;;
53034;SDS011;38923;53.236;6.506;2022-10-26T09:11:45;7.93;;;4.85;;
53034;SDS011;38923;53.236;6.506;2022-10-26T09:23:19;10.02;;;4.43;;
53034;SDS011;38923;53.236;6.506;2022-10-26T09:26:12;7.07;;;4.15;;
53034;SDS011;38923;53.236;6.506;2022-10-26T09:28:39;6.93;;;3.47;;
53034;SDS011;38923;53.236;6.506;2022-10-26T09:31:08;7.43;;;4.05;;
53034;SDS011;38923;53.236;6.506;2022-10-26T09:33:39;9.85;;;3.78;;
53034;SDS011;38923;53.236;6.506;2022-10-26T09:36:06;8.15;;;4.10;;
53034;SDS011;38923;53.236;6.506;2022-10-26T09:38:39;7.40;;;4.03;;
53034;SDS011;38923;53.236;6.506;2022-10-26T09:46:48;7.80;;;3.72;;
53034;SDS011;38923;53.236;6.506;2022-10-26T09:49:22;7.35;;;3.67;;
53034;SDS011;38923;53.236;6.506;2022-10-26T09:51:57;9.15;;;3.47;;
53034;SDS011;38923;53.236;6.506;2022-10-26T09:54:23;9.25;;;3.80;;
53034;SDS011;38923;53.236;6.506;2022-10-26T09:56:53;7.15;;;3.65;;
53034;SDS011;38923;53.236;6.506;2022-10-26T09:59:22;11.60;;;3.77;;
53034;SDS011;38923;53.236;6.506;2022-10-26T10:01:49;9.18;;;3.38;;
53034;SDS011;38923;53.236;6.506;2022-10-26T10:06:42;9.00;;;3.25;;
53034;SDS011;38923;53.236;6.506;2022-10-26T10:09:09;7.93;;;3.28;;
53034;SDS011;38923;53.236;6.506;2022-10-26T10:11:53;5.97;;;3.20;;
53034;SDS011;38923;53.236;6.506;2022-10-26T10:14:24;6.85;;;3.65;;
53034;SDS011;38923;53.236;6.506;2022-10-26T10:16:58;7.60;;;3.53;;
53034;SDS011;38923;53.236;6.506;2022-10-26T10:19:27;8.73;;;3.15;;
53034;SDS011;38923;53.236;6.506;2022-10-26T10:22:08;6.68;;;3.13;;
53034;SDS011;38923;53.236;6.506;2022-10-26T10:24:53;9.18;;;3.42;;
53034;SDS011;38923;53.236;6.506;2022-10-26T10:27:20;9.68;;;3.47;;
53034;SDS011;38923;53.236;6.506;2022-10-26T10:29:48;5.75;;;3.17;;
53034;SDS011;38923;53.236;6.506;2022-10-26T10:32:25;9.30;;;3.25;;
53034;SDS011;38923;53.236;6.506;2022-10-26T10:34:54;7.35;;;3.33;;
53034;SDS011;38923;53.236;6.506;2022-10-26T10:37:37;6.32;;;3.13;;
53034;SDS011;38923;53.236;6.506;2022-10-26T10:42:41;7.90;;;3.25;;
53034;SDS011;38923;53.236;6.506;2022-10-26T10:45:19;8.48;;;3.70;;
53034;SDS011;38923;53.236;6.506;2022-10-26T10:47:57;7.10;;;3.38;;
53034;SDS011;38923;53.236;6.506;2022-10-26T10:50:29;8.05;;;3.83;;
53034;SDS011;38923;53.236;6.506;2022-10-26T10:53:14;9.77;;;3.60;;
53034;SDS011;38923;53.236;6.506;2022-10-26T10:56:22;7.55;;;3.70;;
53034;SDS011;38923;53.236;6.506;2022-10-26T11:02:10;7.75;;;3.42;;
53034;SDS011;38923;53.236;6.506;2022-10-26T11:07:15;9.25;;;3.25;;
53034;SDS011;38923;53.236;6.506;2022-10-26T11:09:42;6.85;;;3.10;;
53034;SDS011;38923;53.236;6.506;2022-10-26T11:12:47;7.53;;;2.95;;
53034;SDS011;38923;53.236;6.506;2022-10-26T11:15:13;7.25;;;3.22;;
53034;SDS011;38923;53.236;6.506;2022-10-26T11:20:42;6.13;;;2.85;;
53034;SDS011;38923;53.236;6.506;2022-10-26T11:25:52;8.45;;;2.70;;
53034;SDS011;38923;53.236;6.506;2022-10-26T11:28:43;7.68;;;2.92;;
53034;SDS011;38923;53.236;6.506;2022-10-26T11:31:26;8.50;;;2.97;;
53034;SDS011;38923;53.236;6.506;2022-10-26T11:34:15;5.53;;;2.67;;
53034;SDS011;38923;53.236;6.506;2022-10-26T11:36:57;10.40;;;2.95;;
53034;SDS011;38923;53.236;6.506;2022-10-26T11:45:33;8.60;;;4.55;;
53034;SDS011;38923;53.236;6.506;2022-10-26T11:48:05;9.90;;;4.35;;
53034;SDS011;38923;53.236;6.506;2022-10-26T11:50:37;10.23;;;4.50;;
53034;SDS011;38923;53.236;6.506;2022-10-26T11:53:11;12.98;;;5.05;;
53034;SDS011;38923;53.236;6.506;2022-10-26T11:55:41;9.20;;;4.80;;
53034;SDS011;38923;53.236;6.506;2022-10-26T11:58:10;12.48;;;4.22;;
53034;SDS011;38923;53.236;6.506;2022-10-26T12:00:48;10.15;;;3.97;;
53034;SDS011;38923;53.236;6.506;2022-10-26T12:03:48;9.13;;;3.50;;
53034;SDS011;38923;53.236;6.506;2022-10-26T12:06:19;6.53;;;3.40;;
53034;SDS011;38923;53.236;6.506;2022-10-26T12:08:54;9.73;;;3.95;;
53034;SDS011;38923;53.236;6.506;2022-10-26T12:14:32;7.95;;;2.90;;
53034;SDS011;38923;53.236;6.506;2022-10-26T12:17:09;11.18;;;2.83;;
53034;SDS011;38923;53.236;6.506;2022-10-26T12:22:31;6.38;;;2.83;;
53034;SDS011;38923;53.236;6.506;2022-10-26T12:25:04;8.57;;;2.65;;
53034;SDS011;38923;53.236;6.506;2022-10-26T12:27:31;6.85;;;3.00;;
53034;SDS011;38923;53.236;6.506;2022-10-26T12:38:00;9.38;;;3.00;;
53034;SDS011;38923;53.236;6.506;2022-10-26T12:40:46;5.50;;;3.20;;
53034;SDS011;38923;53.236;6.506;2022-10-26T12:48:50;6.68;;;3.20;;
53034;SDS011;38923;53.236;6.506;2022-10-26T12:56:50;7.50;;;3.40;;
53034;SDS011;38923;53.236;6.506;2022-10-26T13:02:32;11.43;;;3.80;;
53034;SDS011;38923;53.236;6.506;2022-10-26T13:05:41;10.85;;;3.72;;
53034;SDS011;38923;53.236;6.506;2022-10-26T13:08:10;9.40;;;4.45;;
53034;SDS011;38923;53.236;6.506;2022-10-26T13:10:39;9.30;;;4.13;;
53034;SDS011;38923;53.236;6.506;2022-10-26T13:13:27;10.05;;;3.33;;
53034;SDS011;38923;53.236;6.506;2022-10-26T13:15:56;7.88;;;3.72;;
53034;SDS011;38923;53.236;6.506;2022-10-26T13:18:23;11.07;;;3.78;;
53034;SDS011;38923;53.236;6.506;2022-10-26T13:23:38;8.50;;;4.32;;
53034;SDS011;38923;53.236;6.506;2022-10-26T13:26:16;9.80;;;4.10;;
53034;SDS011;38923;53.236;6.506;2022-10-26T13:28:51;8.13;;;5.30;;
53034;SDS011;38923;53.236;6.506;2022-10-26T13:34:03;9.82;;;5.75;;
53034;SDS011;38923;53.236;6.506;2022-10-26T13:39:35;11.00;;;5.53;;
53034;SDS011;38923;53.236;6.506;2022-10-26T13:42:04;10.07;;;5.32;;
53034;SDS011;38923;53.236;6.506;2022-10-26T13:44:38;10.50;;;6.10;;
53034;SDS011;38923;53.236;6.506;2022-10-26T13:47:13;13.55;;;6.13;;
53034;SDS011;38923;53.236;6.506;2022-10-26T13:49:53;15.27;;;6.38;;
53034;SDS011;38923;53.236;6.506;2022-10-26T13:52:28;10.57;;;6.10;;
53034;SDS011;38923;53.236;6.506;2022-10-26T13:55:19;15.38;;;6.82;;
53034;SDS011;38923;53.236;6.506;2022-10-26T13:58:00;8.48;;;5.97;;
53034;SDS011;38923;53.236;6.506;2022-10-26T14:03:35;14.82;;;6.90;;
53034;SDS011;38923;53.236;6.506;2022-10-26T14:06:22;10.63;;;6.43;;
53034;SDS011;38923;53.236;6.506;2022-10-26T14:08:52;10.40;;;6.90;;
53034;SDS011;38923;53.236;6.506;2022-10-26T14:11:23;9.40;;;6.45;;
53034;SDS011;38923;53.236;6.506;2022-10-26T14:14:01;8.05;;;5.78;;
53034;SDS011;38923;53.236;6.506;2022-10-26T14:16:29;14.80;;;6.00;;
53034;SDS011;38923;53.236;6.506;2022-10-26T14:18:58;13.18;;;5.95;;
53034;SDS011;38923;53.236;6.506;2022-10-26T14:21:24;11.55;;;5.18;;
53034;SDS011;38923;53.236;6.506;2022-10-26T14:23:54;11.68;;;5.82;;
53034;SDS011;38923;53.236;6.506;2022-10-26T14:26:25;10.93;;;4.95;;
53034;SDS011;38923;53.236;6.506;2022-10-26T14:28:58;11.35;;;5.05;;
53034;SDS011;38923;53.236;6.506;2022-10-26T14:31:28;12.07;;;5.53;;
53034;SDS011;38923;53.236;6.506;2022-10-26T14:33:56;10.88;;;5.50;;
53034;SDS011;38923;53.236;6.506;2022-10-26T14:36:44;13.55;;;5.25;;
53034;SDS011;38923;53.236;6.506;2022-10-26T14:39:21;14.40;;;5.97;;
53034;SDS011;38923;53.236;6.506;2022-10-26T14:42:02;9.70;;;5.43;;
53034;SDS011;38923;53.236;6.506;2022-10-26T14:44:48;11.05;;;5.47;;
53034;SDS011;38923;53.236;6.506;2022-10-26T14:47:22;10.63;;;5.63;;
53034;SDS011;38923;53.236;6.506;2022-10-26T14:49:53;15.82;;;6.13;;
53034;SDS011;38923;53.236;6.506;2022-10-26T14:52:23;9.13;;;5.10;;
53034;SDS011;38923;53.236;6.506;2022-10-26T14:54:59;9.55;;;5.53;;
53034;SDS011;38923;53.236;6.506;2022-10-26T14:57:35;10.57;;;5.13;;
53034;SDS011;38923;53.236;6.506;2022-10-26T15:00:18;14.75;;;5.80;;
53034;SDS011;38923;53.236;6.506;2022-10-26T15:02:46;15.27;;;5.97;;
53034;SDS011;38923;53.236;6.506;2022-10-26T15:05:17;10.15;;;6.40;;
53034;SDS011;38923;53.236;6.506;2022-10-26T15:07:54;14.98;;;7.50;;
53034;SDS011;38923;53.236;6.506;2022-10-26T15:16:05;10.50;;;7.18;;
53034;SDS011;38923;53.236;6.506;2022-10-26T15:18:35;12.80;;;7.68;;
53034;SDS011;38923;53.236;6.506;2022-10-26T15:21:02;13.52;;;8.18;;
53034;SDS011;38923;53.236;6.506;2022-10-26T15:23:41;11.40;;;8.70;;
53034;SDS011;38923;53.236;6.506;2022-10-26T15:26:08;16.55;;;9.20;;
53034;SDS011;38923;53.236;6.506;2022-10-26T15:31:05;15.73;;;9.88;;
53034;SDS011;38923;53.236;6.506;2022-10-26T15:33:34;14.07;;;9.75;;
53034;SDS011;38923;53.236;6.506;2022-10-26T15:38:33;19.98;;;10.50;;
53034;SDS011;38923;53.236;6.506;2022-10-26T15:40:59;12.85;;;10.82;;
53034;SDS011;38923;53.236;6.506;2022-10-26T15:43:25;16.95;;;10.90;;
53034;SDS011;38923;53.236;6.506;2022-10-26T15:45:50;17.73;;;11.77;;
53034;SDS011;38923;53.236;6.506;2022-10-26T15:48:21;16.58;;;11.88;;
53034;SDS011;38923;53.236;6.506;2022-10-26T15:50:51;17.80;;;12.15;;
53034;SDS011;38923;53.236;6.506;2022-10-26T15:53:19;14.90;;;12.45;;
53034;SDS011;38923;53.236;6.506;2022-10-26T15:55:51;19.65;;;12.57;;
53034;SDS011;38923;53.236;6.506;2022-10-26T15:58:19;13.25;;;11.02;;
53034;SDS011;38923;53.236;6.506;2022-10-26T16:00:45;14.68;;;10.82;;
53034;SDS011;38923;53.236;6.506;2022-10-26T16:03:16;14.75;;;10.90;;
53034;SDS011;38923;53.236;6.506;2022-10-26T16:05:45;14.82;;;10.35;;
53034;SDS011;38923;53.236;6.506;2022-10-26T16:08:14;13.27;;;10.73;;
53034;SDS011;38923;53.236;6.506;2022-10-26T16:10:41;17.55;;;11.35;;
53034;SDS011;38923;53.236;6.506;2022-10-26T16:13:11;14.80;;;10.63;;
53034;SDS011;38923;53.236;6.506;2022-10-26T16:15:38;15.48;;;10.18;;
53034;SDS011;38923;53.236;6.506;2022-10-26T16:18:04;14.13;;;10.65;;
53034;SDS011;38923;53.236;6.506;2022-10-26T16:20:30;14.05;;;9.93;;
53034;SDS011;38923;53.236;6.506;2022-10-26T16:22:56;12.25;;;9.75;;
53034;SDS011;38923;53.236;6.506;2022-10-26T16:25:25;13.32;;;9.27;;
53034;SDS011;38923;53.236;6.506;2022-10-26T16:27:51;14.20;;;8.85;;
53034;SDS011;38923;53.236;6.506;2022-10-26T16:30:19;17.23;;;9.70;;
53034;SDS011;38923;53.236;6.506;2022-10-26T16:32:46;15.77;;;10.70;;
53034;SDS011;38923;53.236;6.506;2022-10-26T16:35:12;22.00;;;11.00;;
53034;SDS011;38923;53.236;6.506;2022-10-26T16:37:38;18.35;;;11.52;;
53034;SDS011;38923;53.236;6.506;2022-10-26T16:40:04;14.45;;;9.73;;
53034;SDS011;38923;53.236;6.506;2022-10-26T16:42:32;16.60;;;11.75;;
53034;SDS011;38923;53.236;6.506;2022-10-26T16:44:58;17.15;;;12.55;;
53034;SDS011;38923;53.236;6.506;2022-10-26T16:47:24;14.85;;;11.35;;
53034;SDS011;38923;53.236;6.506;2022-10-26T16:49:50;16.77;;;11.57;;
53034;SDS011;38923;53.236;6.506;2022-10-26T16:52:16;15.63;;;11.73;;
53034;SDS011;38923;53.236;6.506;2022-10-26T16:54:42;18.13;;;12.35;;
53034;SDS011;38923;53.236;6.506;2022-10-26T16:57:08;19.92;;;12.40;;
53034;SDS011;38923;53.236;6.506;2022-10-26T16:59:35;16.90;;;12.02;;
53034;SDS011;38923;53.236;6.506;2022-10-26T17:02:01;11.93;;;8.65;;
53034;SDS011;38923;53.236;6.506;2022-10-26T17:04:27;15.50;;;7.40;;
53034;SDS011;38923;53.236;6.506;2022-10-26T17:06:52;12.05;;;7.63;;